Hauptseite
METAR-TAF:

METAR-TAF

Flughäfen :

Flughafen Lugano-Agno

Lugano, Schweiz

Breite: 46-00N, Länge: 008-58E, Höhe: 273 m

Beobachtung

Neuester Wetterbericht von vor 22 Minuten, um 03:50 UTC
Wind 2 kt aus Nordost
Temperatur 14°C
Luftfeuchtigkeit 94%
Luftdruck 1021 hPa
Sichtweite: 6000 m
Durchbrochene Bewölkung in der Höhe von 6000 ft
Aufgelockert bewölkt in der Höhe von 7000 ft

METAR: LSZA 160350Z AUTO 04002KT 6000 BKN060 SCT070 14/13 Q1021

Zeit: 06:12 (04:12 UTC)

Prognose

Neuester Wetterbericht von vor 1 Stunde und 47 Minuten, um 02:25 UTC
Gültige Prognose vom 16 um 03 UTC bis 16 um 12 UTC
Wind 3 kt aus unterschiedlichen Richtungen
Sichtweite 10 km oder mehr
Aufgelockert bewölkt in der Höhe von 6000 ft

TAF: LSZA 160225Z 1603/1612 VRB03KT 9999 SCT060

Wetterbeobachtungen und Prognosen von mehr als 4000 Flughäfen (METAR und TAF Bericht).

Die verfügbaren Stationen werden durch gelbe und rote Markierungen auf der Karte dargestellt.

Führen Sie die Maus auf sie, um den Namen der Station zu sehen.

Darauf klicken, um die Beobachtung von Wetterbeobachtungen und Prognosen zu sehen.

Um die Karte zu ändern : klicken Sie auf den grünen Tasten mit einem schwarzen Kreuz Zum Vergrößern, auf den grünen Button mit einem Gedankenstrich zu verkleinern, oder auf die grünen Pfeile für benachbarte Karten.


METAR-TAF: